createdAt,value
2018-03-21T00:01:37.062Z,13.20
2018-03-21T00:04:07.839Z,10.37
2018-03-21T00:06:36.583Z,6.40
2018-03-21T00:09:06.258Z,5.13
2018-03-21T00:12:37.871Z,5.43
2018-03-21T00:15:06.454Z,8.30
2018-03-21T00:17:34.892Z,5.50
2018-03-21T00:20:03.645Z,7.20
2018-03-21T00:22:32.312Z,7.33
2018-03-21T00:25:01.065Z,8.10
2018-03-21T00:27:29.676Z,4.90
2018-03-21T00:29:58.400Z,5.50
2018-03-21T00:32:27.402Z,5.80
2018-03-21T00:34:56.114Z,6.40
2018-03-21T00:37:24.613Z,6.10
2018-03-21T00:39:53.060Z,5.90
2018-03-21T00:42:21.588Z,6.00
2018-03-21T00:44:50.274Z,6.60
2018-03-21T00:47:19.432Z,6.30
2018-03-21T00:49:48.022Z,6.40
2018-03-21T00:52:16.527Z,8.73
2018-03-21T00:54:45.226Z,8.77
2018-03-21T00:57:13.808Z,7.67
2018-03-21T00:59:42.312Z,7.10
2018-03-21T01:02:11.004Z,7.17
2018-03-21T01:04:39.611Z,8.40
2018-03-21T01:07:08.230Z,8.10
2018-03-21T01:09:36.794Z,7.50
2018-03-21T01:12:05.578Z,7.80
2018-03-21T01:14:34.469Z,8.70
2018-03-21T01:17:03.130Z,7.10
2018-03-21T01:19:32.143Z,7.17
2018-03-21T01:22:00.825Z,7.13
2018-03-21T01:24:29.340Z,6.60
2018-03-21T01:26:57.792Z,6.53
2018-03-21T01:29:26.300Z,6.87
2018-03-21T01:31:54.948Z,7.20
2018-03-21T01:34:23.376Z,6.80
2018-03-21T01:36:52.240Z,7.37
2018-03-21T01:39:20.809Z,6.00
2018-03-21T01:41:49.394Z,6.43
2018-03-21T01:44:18.373Z,5.83
2018-03-21T01:46:46.989Z,5.30
2018-03-21T01:49:15.684Z,5.67
2018-03-21T01:51:44.500Z,5.57
2018-03-21T01:54:13.455Z,5.30
2018-03-21T01:56:42.121Z,4.83
2018-03-21T01:59:10.828Z,5.53
2018-03-21T02:01:40.301Z,5.80
2018-03-21T02:04:09.122Z,5.87
2018-03-21T02:06:37.618Z,5.90
2018-03-21T02:09:06.137Z,5.63
2018-03-21T02:11:35.132Z,5.80
2018-03-21T02:14:04.087Z,5.00
2018-03-21T02:16:32.486Z,5.63
2018-03-21T02:19:00.907Z,5.93
2018-03-21T02:21:29.337Z,6.40
2018-03-21T02:23:58.132Z,6.27
2018-03-21T02:26:27.450Z,5.60
2018-03-21T02:28:56.385Z,5.30
2018-03-21T02:31:25.544Z,5.87
2018-03-21T02:33:54.065Z,4.50
2018-03-21T02:36:22.647Z,4.37
2018-03-21T02:38:51.309Z,5.20
2018-03-21T02:41:20.182Z,5.70
2018-03-21T02:43:48.709Z,5.60
2018-03-21T02:46:17.633Z,5.73
2018-03-21T02:48:46.173Z,5.30
2018-03-21T02:51:15.077Z,5.20
2018-03-21T02:53:43.537Z,5.50
2018-03-21T02:56:11.964Z,4.57
2018-03-21T02:58:40.602Z,4.37
2018-03-21T03:01:09.332Z,3.73
2018-03-21T03:03:37.914Z,4.70
2018-03-21T03:06:06.418Z,6.63
2018-03-21T03:08:34.845Z,5.50
2018-03-21T03:11:03.294Z,5.57
2018-03-21T03:13:31.821Z,4.73
2018-03-21T03:16:00.535Z,4.60
2018-03-21T03:18:29.486Z,4.50
2018-03-21T03:20:58.390Z,4.70
2018-03-21T03:23:26.941Z,4.47
2018-03-21T03:25:56.021Z,4.50
2018-03-21T03:28:24.524Z,4.63
2018-03-21T03:30:52.995Z,4.30
2018-03-21T03:33:21.584Z,5.00
2018-03-21T03:35:50.089Z,3.73
2018-03-21T03:38:19.868Z,4.17
2018-03-21T03:40:48.424Z,4.50
2018-03-21T03:43:17.045Z,4.23
2018-03-21T03:45:45.800Z,4.80
2018-03-21T03:48:14.419Z,4.50
2018-03-21T03:50:43.162Z,4.20
2018-03-21T03:53:11.748Z,3.97
2018-03-21T03:55:40.486Z,3.93
2018-03-21T03:58:09.560Z,3.70
2018-03-21T04:00:38.188Z,3.83
2018-03-21T04:03:06.836Z,3.33
2018-03-21T04:05:35.524Z,3.93
2018-03-21T04:08:03.993Z,3.67
2018-03-21T04:10:32.617Z,4.17
2018-03-21T04:13:01.185Z,4.00
2018-03-21T04:15:29.620Z,4.43
2018-03-21T04:17:58.160Z,3.57
2018-03-21T04:20:26.765Z,3.87
2018-03-21T04:22:55.286Z,4.47
2018-03-21T04:25:23.725Z,3.30
2018-03-21T04:27:52.421Z,3.10
2018-03-21T04:30:21.220Z,4.70
2018-03-21T04:32:49.806Z,3.87
2018-03-21T04:35:18.624Z,3.97
2018-03-21T04:37:47.297Z,4.00
2018-03-21T04:40:15.772Z,3.60
2018-03-21T04:42:44.591Z,4.53
2018-03-21T04:45:13.452Z,4.37
2018-03-21T04:47:42.137Z,3.83
2018-03-21T04:50:10.835Z,4.07
2018-03-21T04:52:39.424Z,3.77
2018-03-21T04:55:07.949Z,4.33
2018-03-21T04:57:36.821Z,3.70
2018-03-21T11:35:26.507Z,3.00
2018-03-21T11:37:55.399Z,2.90
2018-03-21T11:40:24.024Z,2.77
2018-03-21T11:42:53.164Z,2.60
2018-03-21T11:45:22.439Z,3.07
2018-03-21T11:47:51.445Z,2.83
2018-03-21T11:50:20.402Z,2.70
2018-03-21T11:52:50.694Z,3.00
2018-03-21T11:55:19.176Z,2.47
2018-03-21T11:57:48.964Z,2.70
2018-03-21T12:00:17.454Z,2.67
2018-03-21T12:02:47.122Z,2.90
2018-03-21T12:05:16.096Z,2.50
2018-03-21T12:07:44.846Z,2.60
2018-03-21T12:10:13.757Z,3.07
2018-03-21T12:12:42.714Z,3.27
2018-03-21T12:15:11.510Z,3.00
2018-03-21T12:17:40.632Z,3.30
2018-03-21T12:20:09.485Z,2.87
2018-03-21T12:22:38.073Z,2.43
2018-03-21T12:25:06.735Z,2.40
2018-03-21T12:27:35.663Z,2.80
2018-03-21T12:30:05.481Z,2.60
2018-03-21T12:32:35.439Z,3.10
2018-03-21T12:35:03.911Z,3.50
2018-03-21T12:37:32.984Z,3.07
2018-03-21T12:40:01.497Z,2.57
2018-03-21T12:42:30.980Z,2.97
2018-03-21T12:44:59.473Z,2.40
2018-03-21T12:47:29.218Z,2.70
2018-03-21T12:49:58.843Z,2.63
2018-03-21T12:52:28.655Z,2.70
2018-03-21T12:54:57.409Z,2.23
2018-03-21T12:57:27.235Z,3.07
2018-03-21T12:59:55.930Z,2.97
2018-03-21T13:02:24.682Z,3.23
2018-03-21T13:04:53.631Z,2.70
2018-03-21T13:07:22.328Z,2.77
2018-03-21T13:09:51.024Z,3.20
2018-03-21T13:12:20.365Z,3.07
2018-03-21T13:14:49.217Z,3.47
2018-03-21T13:17:18.408Z,2.57
2018-03-21T13:19:47.106Z,2.50
2018-03-21T13:22:15.974Z,3.20
2018-03-21T13:24:45.064Z,2.20
2018-03-21T13:27:13.928Z,2.73
2018-03-21T13:29:42.817Z,2.90
2018-03-21T13:32:11.880Z,2.10
2018-03-21T13:34:40.938Z,2.30
2018-03-21T13:37:09.779Z,2.77
2018-03-21T13:39:38.864Z,2.70
2018-03-21T13:42:07.928Z,2.40
2018-03-21T13:44:36.925Z,2.93
2018-03-21T13:47:05.440Z,2.63
2018-03-21T13:49:34.082Z,2.60
2018-03-21T13:52:03.218Z,1.97
2018-03-21T13:54:33.080Z,2.50
2018-03-21T13:57:01.903Z,2.17
2018-03-21T13:59:30.515Z,2.00
2018-03-21T14:01:59.765Z,2.40
2018-03-21T14:04:28.431Z,2.63
2018-03-21T14:06:57.085Z,3.20
2018-03-21T14:09:26.013Z,2.73
2018-03-21T14:11:54.787Z,2.43
2018-03-21T14:14:24.055Z,2.60
2018-03-21T14:16:53.620Z,3.27
2018-03-21T14:19:22.962Z,2.50
2018-03-21T14:21:52.440Z,3.03
2018-03-21T14:24:21.154Z,2.70
2018-03-21T14:26:49.774Z,2.77
2018-03-21T14:29:18.214Z,2.50
2018-03-21T14:31:46.926Z,2.70
2018-03-21T14:34:15.616Z,3.03
2018-03-21T14:36:44.713Z,3.30
2018-03-21T14:39:13.568Z,2.40
2018-03-21T14:41:42.330Z,3.10
2018-03-21T14:44:10.816Z,2.77
2018-03-21T14:46:40.453Z,2.37
2018-03-21T14:49:09.325Z,2.50
2018-03-21T14:51:38.277Z,2.70
2018-03-21T14:54:07.124Z,3.30
2018-03-21T14:56:35.850Z,3.47
2018-03-21T14:59:04.460Z,2.90
2018-03-21T15:01:33.579Z,2.90
2018-03-21T15:04:03.552Z,4.47
2018-03-21T15:06:33.154Z,2.73
2018-03-21T15:09:02.508Z,3.30
2018-03-21T15:11:31.336Z,2.60
2018-03-21T15:14:00.698Z,3.27
2018-03-21T15:16:30.002Z,3.30
2018-03-21T15:18:59.333Z,2.60
2018-03-21T15:21:28.227Z,2.87
2018-03-21T15:23:57.336Z,2.80
2018-03-21T15:26:27.550Z,3.13
2018-03-21T15:28:58.363Z,2.67
2018-03-21T15:31:27.032Z,3.00
2018-03-21T15:33:55.635Z,2.97
2018-03-21T15:36:25.594Z,2.97
2018-03-21T15:38:54.922Z,3.77
2018-03-21T15:41:24.410Z,3.70
2018-03-21T15:43:53.973Z,2.83
2018-03-21T15:46:24.227Z,2.93
2018-03-21T15:48:53.289Z,2.97
2018-03-21T15:51:22.625Z,3.20
2018-03-21T15:53:52.061Z,3.30
2018-03-21T15:56:21.362Z,3.33
2018-03-21T15:58:50.186Z,3.53
2018-03-21T16:01:18.921Z,3.17
2018-03-21T16:03:47.664Z,3.03
2018-03-21T16:06:16.779Z,3.37
2018-03-21T16:08:46.766Z,3.47
2018-03-21T16:11:16.823Z,3.93
2018-03-21T16:13:45.444Z,3.57
2018-03-21T16:16:14.274Z,3.67
2018-03-21T16:18:44.178Z,3.73
2018-03-21T16:21:13.122Z,6.00
2018-03-21T16:23:42.763Z,3.80
2018-03-21T16:26:11.800Z,4.60
2018-03-21T16:28:40.979Z,3.60
2018-03-21T16:31:10.542Z,3.70
2018-03-21T16:33:40.249Z,4.03
2018-03-21T16:36:09.744Z,4.20
2018-03-21T16:38:38.531Z,3.50
2018-03-21T16:41:07.400Z,3.80
2018-03-21T16:43:36.558Z,4.03
2018-03-21T16:46:05.648Z,3.90
2018-03-21T16:48:34.373Z,4.10
2018-03-21T16:51:03.656Z,3.23
2018-03-21T16:53:32.246Z,4.40
2018-03-21T16:56:02.030Z,3.57
2018-03-21T16:58:30.719Z,3.63
2018-03-21T17:01:00.157Z,4.20
2018-03-21T17:03:29.269Z,6.97
2018-03-21T17:05:59.029Z,4.67
2018-03-21T17:08:28.119Z,4.20
2018-03-21T17:10:57.270Z,4.73
2018-03-21T17:13:26.145Z,5.23
2018-03-21T17:15:55.027Z,5.27
2018-03-21T17:18:24.043Z,4.83
2018-03-21T17:20:52.998Z,7.33
2018-03-21T17:23:21.612Z,5.23
2018-03-21T17:25:50.325Z,6.27
2018-03-21T17:28:19.443Z,4.80
2018-03-21T17:30:48.251Z,5.53
2018-03-21T17:33:16.756Z,7.93
2018-03-21T17:35:47.403Z,7.60
2018-03-21T17:38:16.008Z,7.87
2018-03-21T17:40:45.673Z,5.73
2018-03-21T17:43:14.169Z,10.10
2018-03-21T17:45:43.258Z,9.30
2018-03-21T17:48:13.042Z,8.00
2018-03-21T17:50:41.718Z,10.00
2018-03-21T17:53:10.608Z,8.40
2018-03-21T17:55:39.438Z,7.33
2018-03-21T17:58:07.947Z,7.70
2018-03-21T18:00:36.993Z,7.23
2018-03-21T18:03:05.676Z,6.83
2018-03-21T18:05:35.037Z,7.57
2018-03-21T18:08:03.992Z,6.80
2018-03-21T18:10:33.637Z,7.13
2018-03-21T18:13:03.404Z,6.53
2018-03-21T18:15:32.071Z,6.50
2018-03-21T18:18:00.906Z,6.23
2018-03-21T18:20:29.669Z,6.17
2018-03-21T18:22:58.203Z,5.23
2018-03-21T18:25:26.860Z,5.77
2018-03-21T18:27:55.538Z,6.20
2018-03-21T18:30:24.138Z,5.50
2018-03-21T18:32:52.682Z,6.50
2018-03-21T18:35:21.875Z,5.97
2018-03-21T18:37:52.324Z,5.50
2018-03-21T18:40:22.297Z,5.00
2018-03-21T18:42:51.013Z,5.90
2018-03-21T18:45:19.809Z,5.67
2018-03-21T18:47:48.560Z,5.27
2018-03-21T18:50:18.267Z,5.37
2018-03-21T18:52:47.809Z,4.90
2018-03-21T18:55:16.669Z,5.30
2018-03-21T18:57:45.515Z,5.00
2018-03-21T19:00:14.529Z,5.00
2018-03-21T19:02:45.565Z,5.77
2018-03-21T19:05:14.698Z,6.10
2018-03-21T19:07:44.511Z,4.80
2018-03-21T19:10:14.243Z,4.57
2018-03-21T19:12:44.485Z,4.17
2018-03-21T19:15:13.798Z,6.23
2018-03-21T19:17:43.179Z,5.23
2018-03-21T19:20:12.429Z,4.50
2018-03-21T19:22:41.523Z,5.43
2018-03-21T19:25:10.386Z,5.80
2018-03-21T19:27:39.359Z,5.30
2018-03-21T19:30:09.321Z,5.90
2018-03-21T19:32:37.937Z,4.37
2018-03-21T19:35:07.411Z,5.40
2018-03-21T19:37:36.214Z,5.70
2018-03-21T19:40:05.552Z,5.47
2018-03-21T19:42:34.391Z,6.20
2018-03-21T19:45:03.098Z,6.00
2018-03-21T19:47:32.489Z,5.70
2018-03-21T19:50:02.993Z,4.93
2018-03-21T19:52:32.153Z,5.00
2018-03-21T19:55:01.064Z,4.37
2018-03-21T19:57:29.773Z,6.80
2018-03-21T19:59:58.642Z,5.57
2018-03-21T20:02:27.734Z,6.60
2018-03-21T20:04:57.143Z,6.50
2018-03-21T20:07:26.136Z,6.60
2018-03-21T20:09:55.937Z,7.03
2018-03-21T20:12:25.919Z,7.70
2018-03-21T20:14:55.513Z,9.33
2018-03-21T20:17:25.295Z,7.47
2018-03-21T20:19:55.075Z,6.10
2018-03-21T20:22:24.217Z,6.90
2018-03-21T20:24:54.279Z,8.00
2018-03-21T20:27:24.073Z,9.90
2018-03-21T20:29:52.543Z,10.87
2018-03-21T20:32:21.983Z,8.60
2018-03-21T20:34:50.871Z,11.37
2018-03-21T20:37:19.748Z,6.67
2018-03-21T20:39:48.622Z,7.60
2018-03-21T20:42:17.342Z,6.63
2018-03-21T20:44:45.974Z,6.60
2018-03-21T20:47:14.721Z,6.07
2018-03-21T20:49:46.305Z,6.20
2018-03-21T20:52:15.150Z,5.67
2018-03-21T20:54:44.318Z,5.97
2018-03-21T20:57:13.403Z,5.53
2018-03-21T20:59:43.129Z,5.40
2018-03-21T21:02:12.556Z,6.17
2018-03-21T21:04:42.457Z,6.43
2018-03-21T21:07:11.045Z,6.10
2018-03-21T21:09:40.516Z,6.23
2018-03-21T21:12:09.158Z,6.50
2018-03-21T21:14:37.791Z,7.37
2018-03-21T21:17:06.890Z,5.60
2018-03-21T21:19:36.289Z,6.20
2018-03-21T21:22:05.754Z,5.97
2018-03-21T21:24:34.503Z,6.40
2018-03-21T21:27:03.330Z,5.30
2018-03-21T21:29:32.340Z,7.07
2018-03-21T21:32:00.991Z,6.43
2018-03-21T21:34:29.645Z,5.60
2018-03-21T21:36:58.196Z,5.60
2018-03-21T21:39:26.817Z,5.27
2018-03-21T21:41:55.320Z,5.20
2018-03-21T21:44:30.270Z,5.20
2018-03-21T21:46:59.439Z,5.30
2018-03-21T21:49:28.187Z,5.30
2018-03-21T21:51:57.551Z,6.67
2018-03-21T21:54:25.976Z,5.57
2018-03-21T21:56:56.047Z,5.23
2018-03-21T21:59:24.867Z,4.90
2018-03-21T22:01:53.823Z,4.53
2018-03-21T22:04:22.484Z,5.10
2018-03-21T22:06:52.292Z,5.57
2018-03-21T22:09:21.252Z,5.30
2018-03-21T22:11:49.965Z,5.60
2018-03-21T22:14:19.382Z,4.50
2018-03-21T22:16:48.973Z,5.10
2018-03-21T22:19:17.615Z,4.97
2018-03-21T22:21:46.049Z,4.90
2018-03-21T22:24:14.659Z,5.30
2018-03-21T22:26:43.151Z,5.40
2018-03-21T22:29:11.924Z,4.80
2018-03-21T22:31:40.796Z,4.70
2018-03-21T22:34:10.841Z,5.70
2018-03-21T22:36:39.532Z,5.70
2018-03-21T22:39:08.158Z,10.40
2018-03-21T22:41:36.877Z,5.57
2018-03-21T22:44:05.402Z,6.10
2018-03-21T22:46:34.163Z,6.50
2018-03-21T22:49:02.687Z,5.60
2018-03-21T22:51:31.299Z,6.33
2018-03-21T22:54:00.468Z,5.57
2018-03-21T22:56:28.975Z,6.23
2018-03-21T22:58:57.626Z,5.10
2018-03-21T23:01:27.263Z,6.30
2018-03-21T23:03:56.076Z,5.63
2018-03-21T23:06:25.221Z,5.90
2018-03-21T23:08:53.889Z,6.07
2018-03-21T23:11:23.397Z,7.23
2018-03-21T23:13:52.189Z,7.53
2018-03-21T23:16:20.743Z,6.60
2018-03-21T23:18:49.328Z,7.70
2018-03-21T23:21:18.105Z,7.57
2018-03-21T23:23:46.721Z,8.00
2018-03-21T23:26:15.280Z,7.60
2018-03-21T23:28:44.127Z,8.00
2018-03-21T23:31:12.618Z,8.23
2018-03-21T23:33:41.472Z,8.20
2018-03-21T23:36:10.766Z,8.67
2018-03-21T23:38:39.292Z,8.57
2018-03-21T23:41:08.004Z,8.83
2018-03-21T23:43:36.644Z,8.63
2018-03-21T23:46:05.648Z,10.00
2018-03-21T23:48:34.309Z,9.93
2018-03-21T23:51:03.652Z,9.83
2018-03-21T23:53:32.310Z,9.90
2018-03-21T23:56:00.938Z,10.50
2018-03-21T23:58:29.558Z,10.47
